KHKA

Blytheville Municipal Airport

Blytheville, Arkansas, USA
METAR KHKA 210653Z AUTO 31009KT 9SM -TSRA BKN037 BKN065 OVC110 21/19 A3009 RMK AO2 LTG DSNT N AND NE TSB19 SLP188 P0002 T02110194 $
Observed Flight Rules
May-21 @ 06:53 UTC (24 minutes ago) Visual Flight Rules
Wind Visibility Clouds Conditions
310° at 9 knots 9 miles
  • Broken at 3,700' AGL
  • Broken at 6,500' AGL
  • Overcast at 11,000' AGL
  • Light Thunderstorm
  • Light Rain
Temperatures Readings Precipitation
Current 21°C / 70°F
Dewpoint 19°C / 66°F
Humidity 88%
Altimeter 30.09" Hg
Pressure 1018.8 hPa
Elevation 78
Current Rain 0.02
METAR KHKA 210653Z AUTO 31009KT 9SM -TSRA BKN037 BKN065 OVC110 21/19 A3009 RMK AO2 LTG DSNT N AND NE TSB19 SLP188 P0002 T02110194 $
Observed Flight Rules
May-21 @ 06:53 UTC
(24 minutes ago)
VFR
Wind Visibility
310° at 9 knots 9 miles
Clouds
  • Broken at 3,700' AGL
  • Broken at 6,500' AGL
  • Overcast at 11,000' AGL
Conditions
  • Light Thunderstorm
  • Light Rain
Temperature Dewpoint
21°C / 70°F 19°C / 66°F
Humidity Altimeter Pressure
88% 30.09" Hg 1018.8 hPa
Current Rain
0.02